Time;durP1;ratioP1;P1;durP2;ratioP2;P2;SDS_P1;SDS_P2;PMS_P1;PMS_P2;Temp;Humidity;BMP_temperature;BMP_pressure;BME280_temperature;BME280_humidity;BME280_pressure;Samples;Min_cycle;Max_cycle;Signal;HPM_P1;HPM_P2
2022/12/25 00:00:30;;;;;;;383.90;29.10;;;3.30;99.90;;;;;;4990833;28;20052;-56
2022/12/25 00:02:56;;;;;;;414.67;31.10;;;3.20;99.90;;;;;;4994569;28;20728;-58
2022/12/25 00:05:21;;;;;;;543.88;39.10;;;3.20;99.90;;;;;;4993266;28;20304;-57
2022/12/25 00:07:47;;;;;;;502.25;38.97;;;3.20;99.90;;;;;;4993015;28;20049;-57
2022/12/25 00:10:12;;;;;;;486.98;38.17;;;3.20;99.90;;;;;;4991591;28;20084;-55
2022/12/25 00:12:38;;;;;;;475.23;36.70;;;3.20;99.90;;;;;;4994681;28;20396;-57
2022/12/25 00:15:04;;;;;;;492.58;42.05;;;3.10;99.90;;;;;;4994259;28;20120;-57
2022/12/25 00:17:30;;;;;;;474.08;37.67;;;3.10;99.90;;;;;;4993939;28;20127;-56
2022/12/25 00:19:55;;;;;;;359.27;34.88;;;3.10;99.90;;;;;;4990783;28;20515;-56
2022/12/25 00:22:21;;;;;;;308.52;29.67;;;3.00;99.90;;;;;;4992776;28;20056;-57
2022/12/25 00:24:48;;;;;;;637.30;48.70;;;3.00;99.90;;;;;;4994865;28;20042;-58
2022/12/25 00:27:14;;;;;;;129.52;25.63;;;3.00;99.90;;;;;;4994692;28;20046;-58
2022/12/25 00:29:40;;;;;;;141.93;30.17;;;3.00;99.90;;;;;;4991362;28;20049;-57
2022/12/25 00:32:05;;;;;;;168.65;32.88;;;3.00;99.90;;;;;;4994043;28;20049;-57
2022/12/25 00:34:31;;;;;;;192.35;36.13;;;3.10;99.90;;;;;;4993718;28;20052;-58
2022/12/25 00:36:56;;;;;;;206.20;38.92;;;3.30;99.90;;;;;;4992249;28;20046;-57
2022/12/25 00:39:22;;;;;;;202.93;38.08;;;3.60;99.90;;;;;;4990156;28;20888;-57
2022/12/25 00:44:32;;;;;;;202.82;39.67;;;3.90;99.90;;;;;;5008210;28;20819;-58
2022/12/25 00:46:57;;;;;;;216.98;39.22;;;4.00;99.90;;;;;;4993674;28;20046;-57
2022/12/25 00:49:23;;;;;;;189.73;38.88;;;4.10;99.90;;;;;;4991533;28;20053;-57
2022/12/25 00:51:49;;;;;;;180.23;37.97;;;4.20;99.90;;;;;;4991499;28;20057;-57
2022/12/25 00:54:15;;;;;;;182.50;38.67;;;4.30;99.90;;;;;;5000739;28;20723;-57
2022/12/25 00:56:41;;;;;;;181.35;39.10;;;4.40;99.90;;;;;;4993888;28;20038;-57
2022/12/25 00:59:06;;;;;;;200.77;39.67;;;4.60;99.90;;;;;;5005112;28;20515;-57
2022/12/25 01:01:33;;;;;;;201.32;40.00;;;4.70;99.90;;;;;;5003987;28;20042;-57
2022/12/25 01:03:59;;;;;;;186.75;38.58;;;4.70;99.90;;;;;;5005301;28;20049;-57
2022/12/25 01:06:25;;;;;;;175.63;38.10;;;4.80;99.90;;;;;;5003755;28;20644;-57
2022/12/25 01:11:35;;;;;;;;;;;4.80;99.90;;;;;;4986806;28;20132;-58
2022/12/25 01:14:01;;;;;;;200.55;35.95;;;4.80;99.90;;;;;;4987522;28;20201;-57
2022/12/25 01:16:27;;;;;;;187.55;36.13;;;4.80;99.90;;;;;;5004473;28;20418;-56
2022/12/25 01:18:53;;;;;;;181.52;35.08;;;4.80;99.90;;;;;;5003916;28;20037;-57
2022/12/25 01:21:20;;;;;;;169.35;34.13;;;4.80;99.90;;;;;;5002043;28;20042;-58
2022/12/25 01:23:46;;;;;;;171.70;33.78;;;4.70;99.90;;;;;;5004473;28;20129;-57
2022/12/25 01:26:13;;;;;;;176.82;33.60;;;4.70;99.90;;;;;;5005067;28;20084;-58
2022/12/25 01:28:39;;;;;;;165.10;32.53;;;4.60;99.90;;;;;;5004333;28;20064;-58
2022/12/25 01:31:08;;;;;;;177.20;35.78;;;4.60;99.90;;;;;;5004587;28;20038;-57
2022/12/25 01:33:34;;;;;;;176.63;35.95;;;4.60;99.90;;;;;;5004758;28;20464;-57
2022/12/25 01:35:59;;;;;;;181.00;34.78;;;4.70;99.90;;;;;;5003875;28;20125;-55
2022/12/25 01:38:25;;;;;;;194.52;37.70;;;4.70;99.90;;;;;;5003800;28;20449;-56
2022/12/25 01:40:50;;;;;;;201.18;40.88;;;4.80;99.90;;;;;;5005116;28;20548;-57
2022/12/25 01:43:28;;;;;;;178.25;40.78;;;4.90;99.90;;;;;;5004771;28;20026;-55
2022/12/25 01:45:54;;;;;;;208.05;41.97;;;5.10;99.90;;;;;;4996038;28;20743;-58
2022/12/25 01:48:24;;;;;;;230.18;46.13;;;5.20;99.90;;;;;;5004489;28;20045;-57
2022/12/25 01:51:04;;;;;;;237.48;47.28;;;5.40;99.90;;;;;;5003591;28;20034;-58
2022/12/25 01:53:30;;;;;;;234.15;48.00;;;5.50;99.90;;;;;;5003409;28;20281;-58
2022/12/25 01:56:00;;;;;;;236.23;47.83;;;5.60;99.90;;;;;;5004483;28;20115;-57
2022/12/25 01:58:27;;;;;;;248.40;49.28;;;5.70;99.90;;;;;;5004460;28;20047;-57
2022/12/25 02:00:52;;;;;;;241.30;49.30;;;5.80;99.90;;;;;;5004024;28;20045;-57
2022/12/25 02:03:20;;;;;;;200.45;46.05;;;5.90;99.90;;;;;;5004238;28;20034;-57
2022/12/25 02:05:46;;;;;;;208.57;44.45;;;6.00;99.90;;;;;;5003746;28;20127;-56
2022/12/25 02:08:14;;;;;;;221.85;47.13;;;6.00;99.90;;;;;;5002605;28;20566;-55
2022/12/25 02:10:41;;;;;;;219.65;45.25;;;6.00;99.90;;;;;;5003614;28;20583;-58
2022/12/25 02:13:08;;;;;;;206.40;43.90;;;6.10;99.90;;;;;;5004759;28;20053;-58
2022/12/25 02:15:57;;;;;;;192.52;44.35;;;6.10;99.90;;;;;;5004123;28;20525;-57
2022/12/25 02:18:39;;;;;;;187.88;42.08;;;6.20;99.90;;;;;;5003709;28;20111;-57
2022/12/25 02:21:38;;;;;;;186.35;42.78;;;6.20;99.90;;;;;;5003409;28;20044;-56
2022/12/25 02:24:12;;;;;;;166.73;40.55;;;6.20;99.90;;;;;;4983180;28;20086;-57
2022/12/25 02:26:59;;;;;;;165.70;40.40;;;6.30;99.90;;;;;;4994917;28;20141;-57
2022/12/25 02:29:38;;;;;;;171.70;40.95;;;6.40;99.90;;;;;;5003293;28;20057;-58
2022/12/25 02:32:12;;;;;;;185.30;42.47;;;6.40;99.90;;;;;;5003908;28;20048;-58
2022/12/25 02:34:51;;;;;;;180.30;42.80;;;6.50;99.90;;;;;;5003285;28;20061;-58
2022/12/25 02:37:33;;;;;;;170.73;41.08;;;6.50;99.90;;;;;;5000160;28;20235;-57
2022/12/25 02:40:10;;;;;;;186.70;42.67;;;6.50;99.90;;;;;;5019180;28;20037;-57
2022/12/25 03:08:29;;;;;;;110.88;31.88;;;7.00;99.90;;;;;;5002251;28;20053;-57
2022/12/25 03:13:50;;;;;;;147.77;35.38;;;7.00;99.90;;;;;;5004142;28;20161;-61
2022/12/25 03:26:53;;;;;;;141.57;37.03;;;7.10;99.90;;;;;;5002901;28;20077;-60
2022/12/25 03:27:15;;;;;;;121.95;33.05;;;7.00;99.90;;;;;;5003480;28;20053;-60
2022/12/25 03:32:57;;;;;;;121.43;33.03;;;7.00;99.90;;;;;;4984832;28;20046;-60
2022/12/25 03:35:48;;;;;;;112.85;31.63;;;7.00;99.90;;;;;;5000782;28;20401;-61
2022/12/25 03:38:51;;;;;;;100.40;30.80;;;7.00;99.90;;;;;;5002795;28;20069;-61
2022/12/25 04:36:49;;;;;;;130.50;34.97;;;6.90;99.90;;;;;;5003942;28;20050;-59
2022/12/25 04:39:15;;;;;;;140.90;36.42;;;7.00;99.90;;;;;;5005876;28;20521;-59
2022/12/25 04:41:41;;;;;;;144.57;39.08;;;7.10;99.90;;;;;;5005992;28;20556;-59
2022/12/25 04:44:08;;;;;;;130.82;38.35;;;7.20;99.90;;;;;;5006548;28;20069;-59
2022/12/25 04:46:33;;;;;;;128.55;35.83;;;7.20;99.90;;;;;;5005966;28;20120;-58
2022/12/25 04:48:59;;;;;;;127.97;36.53;;;7.30;99.90;;;;;;5006253;28;20620;-60
2022/12/25 04:51:25;;;;;;;151.25;38.25;;;7.30;99.90;;;;;;5004952;28;20034;-59
2022/12/25 04:53:51;;;;;;;132.82;36.50;;;7.30;99.90;;;;;;5003552;28;20117;-59
2022/12/25 04:56:18;;;;;;;148.32;36.75;;;7.40;99.90;;;;;;5005902;28;20053;-59
2022/12/25 04:58:44;;;;;;;148.15;37.05;;;7.40;99.90;;;;;;5006111;28;20042;-59
2022/12/25 05:01:10;;;;;;;128.50;35.72;;;7.40;99.90;;;;;;5005539;28;20601;-58
2022/12/25 05:03:36;;;;;;;135.90;36.95;;;7.40;99.90;;;;;;5006059;28;20102;-59
2022/12/25 05:06:05;;;;;;;146.15;36.90;;;7.40;99.90;;;;;;5002712;28;20033;-59
2022/12/25 05:08:32;;;;;;;152.27;36.85;;;7.40;99.90;;;;;;5004616;28;20488;-59
2022/12/25 05:10:57;;;;;;;162.00;38.33;;;7.40;99.90;;;;;;5005951;28;20049;-57
2022/12/25 05:13:23;;;;;;;143.63;36.20;;;7.40;99.90;;;;;;5005908;28;20042;-58
2022/12/25 05:15:49;;;;;;;160.65;38.30;;;7.50;99.90;;;;;;5003248;28;20041;-59
2022/12/25 05:18:15;;;;;;;175.95;38.80;;;7.40;99.90;;;;;;5003576;28;20485;-58
2022/12/25 05:20:40;;;;;;;170.15;37.58;;;7.50;99.90;;;;;;5005134;28;20123;-59
2022/12/25 05:23:09;;;;;;;155.80;38.08;;;7.50;99.90;;;;;;5003970;28;20066;-58
2022/12/25 05:25:38;;;;;;;175.75;39.00;;;7.50;99.90;;;;;;5005251;28;20037;-59
2022/12/25 05:28:03;;;;;;;174.27;39.50;;;7.50;99.90;;;;;;5004560;28;20052;-59
2022/12/25 05:30:29;;;;;;;162.43;39.00;;;7.50;99.90;;;;;;5004932;28;20046;-59
2022/12/25 05:32:54;;;;;;;170.55;38.88;;;7.50;99.90;;;;;;5005061;28;20517;-59
2022/12/25 05:35:20;;;;;;;171.15;40.70;;;7.60;99.90;;;;;;5004131;28;20512;-58
2022/12/25 05:37:46;;;;;;;183.70;41.58;;;7.60;99.90;;;;;;5003466;28;20095;-59
2022/12/25 05:40:11;;;;;;;159.05;40.47;;;7.60;99.90;;;;;;5020575;28;20037;-59
2022/12/25 05:42:37;;;;;;;212.65;43.47;;;7.60;99.90;;;;;;5005758;28;20034;-58
2022/12/25 05:45:03;;;;;;;197.07;43.17;;;7.60;99.90;;;;;;5004238;28;20079;-59
2022/12/25 05:47:28;;;;;;;188.60;41.53;;;7.70;99.90;;;;;;5004519;28;20077;-59
2022/12/25 05:49:54;;;;;;;210.45;42.13;;;7.70;99.90;;;;;;5004875;28;20042;-58
2022/12/25 05:52:19;;;;;;;188.40;42.13;;;7.70;99.90;;;;;;5001383;28;20057;-57
2022/12/25 05:54:45;;;;;;;188.20;43.03;;;7.70;99.90;;;;;;5004872;28;20044;-58
2022/12/25 05:57:10;;;;;;;216.38;45.25;;;7.70;99.90;;;;;;5004448;28;20046;-59
2022/12/25 05:59:36;;;;;;;217.48;46.45;;;7.70;99.90;;;;;;5004236;28;20046;-59
2022/12/25 06:02:01;;;;;;;208.52;43.38;;;7.70;99.90;;;;;;5004119;28;20105;-59
2022/12/25 06:04:27;;;;;;;195.75;46.00;;;7.70;99.90;;;;;;5004590;28;20041;-60
2022/12/25 06:06:52;;;;;;;192.48;43.05;;;7.70;99.90;;;;;;5002124;28;20049;-58
2022/12/25 06:09:18;;;;;;;194.65;43.35;;;7.80;99.90;;;;;;5004512;28;20042;-59
2022/12/25 06:11:44;;;;;;;176.27;40.08;;;7.80;99.90;;;;;;5004976;28;20072;-59
2022/12/25 06:14:12;;;;;;;180.60;41.83;;;7.80;99.90;;;;;;5004668;28;20046;-59
2022/12/25 06:16:38;;;;;;;200.98;43.75;;;7.80;99.90;;;;;;5001903;28;20073;-59
2022/12/25 06:19:04;;;;;;;188.55;43.78;;;7.80;99.90;;;;;;5002806;28;20649;-59
2022/12/25 06:21:29;;;;;;;188.27;42.95;;;7.80;99.90;;;;;;5003447;28;20045;-59
2022/12/25 06:23:55;;;;;;;202.52;44.00;;;7.80;99.90;;;;;;5003738;28;20517;-58
2022/12/25 06:26:20;;;;;;;189.02;43.65;;;7.80;99.90;;;;;;5004304;28;20121;-59
2022/12/25 06:28:46;;;;;;;195.25;43.65;;;7.80;99.90;;;;;;5004037;28;20045;-58
2022/12/25 06:31:18;;;;;;;181.30;44.95;;;7.80;99.90;;;;;;5002578;28;20071;-59
2022/12/25 06:33:44;;;;;;;224.15;46.28;;;7.80;99.90;;;;;;5003811;28;20084;-59
2022/12/25 06:36:12;;;;;;;196.40;43.40;;;7.80;99.90;;;;;;5002593;28;20121;-59
2022/12/25 06:38:38;;;;;;;218.93;45.90;;;7.80;99.90;;;;;;5002935;28;20038;-59
2022/12/25 06:41:09;;;;;;;228.70;47.05;;;7.80;99.90;;;;;;5004343;28;20141;-58
2022/12/25 06:43:36;;;;;;;205.55;45.45;;;7.80;99.90;;;;;;5003969;28;20441;-58
2022/12/25 06:46:04;;;;;;;232.75;47.10;;;7.80;99.90;;;;;;5004006;28;20034;-58
2022/12/25 06:48:31;;;;;;;223.50;47.10;;;7.80;99.90;;;;;;5003762;28;20042;-58
2022/12/25 06:50:56;;;;;;;255.05;47.83;;;7.80;99.90;;;;;;5002721;28;20041;-59
2022/12/25 06:53:22;;;;;;;249.05;48.13;;;7.80;99.90;;;;;;5001768;28;20058;-58
2022/12/25 06:55:47;;;;;;;278.77;53.85;;;7.80;99.90;;;;;;5003480;28;20501;-59
2022/12/25 06:58:13;;;;;;;258.48;49.15;;;7.80;99.90;;;;;;5003742;28;20081;-59
2022/12/25 07:00:38;;;;;;;258.48;49.83;;;7.80;99.90;;;;;;5003628;28;20041;-59
2022/12/25 07:03:04;;;;;;;246.27;49.30;;;7.80;99.90;;;;;;5004016;28;20034;-59
2022/12/25 07:05:29;;;;;;;226.00;46.55;;;7.80;99.90;;;;;;5003006;28;20141;-58
2022/12/25 07:07:55;;;;;;;251.70;48.55;;;7.80;99.90;;;;;;5001924;28;20136;-59
2022/12/25 07:10:20;;;;;;;230.52;46.90;;;7.80;99.90;;;;;;5003919;28;20042;-58
2022/12/25 07:12:46;;;;;;;271.15;49.47;;;7.80;99.90;;;;;;5003731;28;20045;-59
2022/12/25 07:15:12;;;;;;;230.55;47.83;;;7.80;99.90;;;;;;5003557;28;20038;-59
2022/12/25 07:17:37;;;;;;;230.30;47.03;;;7.80;99.90;;;;;;5006241;28;20044;-58
2022/12/25 07:20:03;;;;;;;204.85;45.10;;;7.80;99.90;;;;;;5007511;28;20077;-59
2022/12/25 07:22:29;;;;;;;222.30;45.60;;;7.80;99.90;;;;;;5003689;28;20038;-59
2022/12/25 07:24:54;;;;;;;208.65;46.03;;;7.80;99.90;;;;;;5006812;28;20041;-59
2022/12/25 07:27:20;;;;;;;203.48;43.47;;;7.90;99.90;;;;;;5021360;28;20044;-58
2022/12/25 07:29:45;;;;;;;205.48;44.60;;;7.90;99.90;;;;;;5006556;28;20140;-58
2022/12/25 07:32:11;;;;;;;172.27;42.20;;;7.90;99.90;;;;;;5005168;28;20049;-58
2022/12/25 07:34:36;;;;;;;211.63;44.63;;;7.90;99.90;;;;;;5006228;28;20038;-59
2022/12/25 07:37:02;;;;;;;189.65;41.17;;;7.90;99.90;;;;;;5004934;28;20109;-59
2022/12/25 07:39:27;;;;;;;183.25;40.10;;;7.90;99.90;;;;;;5006445;28;20135;-59
2022/12/25 07:41:53;;;;;;;172.85;41.13;;;7.90;99.90;;;;;;5007017;28;20037;-59
2022/12/25 07:44:18;;;;;;;208.35;43.20;;;8.00;99.90;;;;;;5006975;28;20128;-59
2022/12/25 07:46:44;;;;;;;183.65;41.75;;;7.90;99.90;;;;;;5003959;28;20057;-59
2022/12/25 07:49:11;;;;;;;165.63;41.10;;;8.00;99.90;;;;;;5006503;28;20481;-59
2022/12/25 07:51:36;;;;;;;158.93;39.83;;;8.00;99.90;;;;;;5004927;28;20068;-59
2022/12/25 07:54:02;;;;;;;177.60;39.80;;;8.00;99.90;;;;;;5003715;28;20056;-58
2022/12/25 07:56:28;;;;;;;151.40;38.92;;;8.00;99.90;;;;;;5006343;28;20658;-58
2022/12/25 07:58:53;;;;;;;154.20;38.67;;;8.00;99.90;;;;;;5006354;28;20049;-58
2022/12/25 08:01:25;;;;;;;132.48;37.70;;;8.00;99.90;;;;;;5006179;28;20052;-59
2022/12/25 08:03:57;;;;;;;136.25;37.85;;;8.00;99.90;;;;;;5006084;28;20044;-59
2022/12/25 08:06:28;;;;;;;109.82;35.45;;;8.00;99.90;;;;;;5004681;28;20071;-59
2022/12/25 08:08:54;;;;;;;108.05;33.90;;;8.10;99.90;;;;;;5004273;28;20050;-59
2022/12/25 08:11:19;;;;;;;110.40;33.50;;;8.10;99.90;;;;;;5006320;28;20034;-58
2022/12/25 08:13:45;;;;;;;88.82;31.55;;;8.10;99.90;;;;;;5006020;28;20092;-56
2022/12/25 08:16:11;;;;;;;84.60;29.45;;;8.10;99.90;;;;;;5006185;28;20041;-58
2022/12/25 08:18:37;;;;;;;90.63;30.05;;;8.20;99.90;;;;;;5004142;28;20041;-59
2022/12/25 08:21:08;;;;;;;70.07;27.65;;;8.20;99.90;;;;;;5004208;28;20048;-59
2022/12/25 08:23:36;;;;;;;81.88;28.88;;;8.20;99.90;;;;;;5005241;28;20041;-58
2022/12/25 08:26:03;;;;;;;79.32;28.40;;;8.20;99.90;;;;;;4980966;28;20034;-58
2022/12/25 08:28:29;;;;;;;61.75;24.77;;;8.20;99.90;;;;;;5005408;28;20042;-58
2022/12/25 08:30:55;;;;;;;69.78;26.25;;;8.20;99.90;;;;;;5005707;28;20481;-58
2022/12/25 08:33:20;;;;;;;64.75;25.15;;;8.30;99.90;;;;;;5005437;28;20128;-57
2022/12/25 08:35:46;;;;;;;58.83;24.33;;;8.30;99.90;;;;;;5004554;28;20026;-59
2022/12/25 08:38:12;;;;;;;59.60;24.65;;;8.30;99.90;;;;;;5003359;28;20335;-58
2022/12/25 08:40:37;;;;;;;66.65;23.98;;;8.30;99.90;;;;;;5006045;28;20049;-57
2022/12/25 08:43:03;;;;;;;57.47;24.77;;;8.30;99.90;;;;;;5005457;28;20406;-58
2022/12/25 08:45:29;;;;;;;60.83;22.65;;;8.30;99.90;;;;;;5005355;28;20037;-58
2022/12/25 08:47:55;;;;;;;53.97;22.90;;;8.30;99.90;;;;;;5005251;28;20115;-59
2022/12/25 08:50:22;;;;;;;56.75;22.55;;;8.30;99.90;;;;;;5005326;28;20045;-59
2022/12/25 08:52:48;;;;;;;47.25;22.00;;;8.30;99.90;;;;;;5010151;28;20093;-57
2022/12/25 08:55:14;;;;;;;41.28;20.88;;;8.30;99.90;;;;;;5004615;28;20329;-56
2022/12/25 08:57:40;;;;;;;49.65;19.75;;;8.30;99.90;;;;;;5002056;28;20132;-58
2022/12/25 09:00:06;;;;;;;42.15;20.48;;;8.30;99.90;;;;;;5001457;28;20042;-57
2022/12/25 09:02:32;;;;;;;42.80;19.10;;;8.30;99.90;;;;;;5003334;28;20042;-59
2022/12/25 09:04:57;;;;;;;44.60;20.02;;;8.30;99.90;;;;;;5017952;28;20037;-58
2022/12/25 09:07:23;;;;;;;37.13;18.13;;;8.30;99.90;;;;;;5001445;28;20034;-58
2022/12/25 09:09:49;;;;;;;46.70;19.10;;;8.30;99.90;;;;;;5004265;28;20038;-59
2022/12/25 09:12:14;;;;;;;49.05;18.55;;;8.30;99.90;;;;;;5003578;28;20504;-59
2022/12/25 09:14:40;;;;;;;43.97;18.50;;;8.30;99.90;;;;;;5002447;28;20054;-58
2022/12/25 09:17:05;;;;;;;43.47;18.35;;;8.30;99.90;;;;;;5002504;28;20046;-59
2022/12/25 09:19:31;;;;;;;41.22;18.77;;;8.30;99.90;;;;;;5002630;28;20046;-58
2022/12/25 09:21:56;;;;;;;40.30;18.30;;;8.30;99.90;;;;;;5001222;28;20048;-59
2022/12/25 09:24:22;;;;;;;42.47;18.42;;;8.30;99.90;;;;;;5002310;28;20132;-58
2022/12/25 09:26:48;;;;;;;46.20;17.10;;;8.30;99.90;;;;;;5004804;28;20042;-59
2022/12/25 09:29:15;;;;;;;37.60;16.98;;;8.30;99.90;;;;;;5004261;28;20037;-58
2022/12/25 09:31:40;;;;;;;39.08;16.23;;;8.30;99.90;;;;;;5001868;28;20045;-58
2022/12/25 09:34:08;;;;;;;42.20;16.55;;;8.30;99.90;;;;;;5004077;28;20160;-58
2022/12/25 09:36:33;;;;;;;39.70;16.40;;;8.30;99.90;;;;;;5004035;28;20048;-58
2022/12/25 09:38:59;;;;;;;37.88;14.82;;;8.30;99.90;;;;;;5003871;28;20038;-57
2022/12/25 09:41:30;;;;;;;39.75;15.05;;;8.30;99.90;;;;;;5005153;28;20484;-58
2022/12/25 09:44:01;;;;;;;37.22;15.32;;;8.30;99.90;;;;;;5004763;28;20044;-58
2022/12/25 09:46:27;;;;;;;30.40;14.23;;;8.40;99.90;;;;;;5003872;28;20046;-59
2022/12/25 09:49:06;;;;;;;33.38;15.07;;;8.30;99.90;;;;;;5004776;28;20034;-59
2022/12/25 09:51:34;;;;;;;34.90;14.30;;;8.30;99.90;;;;;;5003108;28;20045;-59
2022/12/25 09:54:10;;;;;;;32.33;14.10;;;8.30;99.90;;;;;;5003980;28;20058;-58
2022/12/25 09:56:36;;;;;;;36.13;14.10;;;8.30;99.90;;;;;;5004071;28;20077;-59
2022/12/25 09:59:02;;;;;;;29.67;13.77;;;8.40;99.90;;;;;;5003611;28;20128;-59
2022/12/25 10:01:34;;;;;;;35.67;13.02;;;8.40;99.90;;;;;;5003727;28;20045;-58
2022/12/25 10:04:27;;;;;;;33.35;13.25;;;8.40;99.90;;;;;;5004590;28;20119;-58
2022/12/25 10:07:23;;;;;;;27.33;13.50;;;8.40;99.90;;;;;;5002087;28;20468;-56
2022/12/25 10:10:00;;;;;;;32.33;13.10;;;8.40;99.90;;;;;;5004759;28;20493;-58
2022/12/25 10:13:03;;;;;;;29.52;12.70;;;8.40;99.90;;;;;;5004385;28;20133;-58
2022/12/25 10:16:08;;;;;;;40.15;13.00;;;8.40;99.90;;;;;;5004468;28;20095;-58
2022/12/25 10:18:51;;;;;;;26.58;11.40;;;8.50;99.90;;;;;;5004342;28;20041;-59
2022/12/25 10:21:17;;;;;;;34.38;12.27;;;8.50;99.90;;;;;;5003269;28;20033;-58
2022/12/25 10:24:14;;;;;;;27.88;12.27;;;8.50;99.90;;;;;;5002896;28;20115;-58
2022/12/25 10:26:40;;;;;;;32.15;12.68;;;8.50;99.90;;;;;;5004389;28;20426;-58
2022/12/25 10:29:13;;;;;;;28.05;12.13;;;8.60;99.90;;;;;;5004198;28;20045;-59
2022/12/25 10:31:40;;;;;;;27.52;11.50;;;8.60;99.90;;;;;;4999767;28;20034;-58
2022/12/25 10:34:10;;;;;;;24.88;11.85;;;8.60;99.90;;;;;;5003134;28;20072;-58
2022/12/25 10:36:36;;;;;;;23.30;11.00;;;8.60;99.90;;;;;;5001841;28;20048;-59
2022/12/25 10:39:02;;;;;;;22.65;11.25;;;8.60;99.90;;;;;;5003662;28;20050;-58
2022/12/25 10:41:48;;;;;;;23.05;10.95;;;8.70;99.90;;;;;;5017064;28;20117;-58
2022/12/25 10:44:19;;;;;;;24.67;11.32;;;8.70;99.90;;;;;;5003439;28;20041;-58
2022/12/25 10:46:54;;;;;;;23.27;10.20;;;8.70;99.90;;;;;;5002632;28;20045;-59
2022/12/25 10:49:22;;;;;;;26.63;10.13;;;8.70;99.90;;;;;;5000001;28;20069;-58
2022/12/25 10:51:48;;;;;;;23.73;10.02;;;8.70;99.90;;;;;;4993732;28;20143;-58
2022/12/25 10:54:23;;;;;;;31.20;11.45;;;8.70;99.90;;;;;;5006235;28;20037;-58
2022/12/25 10:57:08;;;;;;;23.00;10.40;;;8.70;99.90;;;;;;4999955;28;20449;-57
2022/12/25 10:59:41;;;;;;;25.10;10.82;;;8.80;99.90;;;;;;5006974;28;20103;-57
2022/12/25 11:02:21;;;;;;;25.73;10.52;;;8.80;99.90;;;;;;5007378;28;20168;-57
2022/12/25 11:04:48;;;;;;;26.60;11.05;;;8.80;99.90;;;;;;5004145;28;20040;-59
2022/12/25 11:07:17;;;;;;;29.88;12.00;;;8.90;99.90;;;;;;5003592;28;20112;-57
2022/12/25 11:09:54;;;;;;;25.88;11.27;;;8.90;99.90;;;;;;5007263;28;20393;-60
2022/12/25 11:12:28;;;;;;;24.05;10.52;;;8.90;99.90;;;;;;5004824;28;20535;-58
2022/12/25 11:14:55;;;;;;;24.42;10.80;;;8.90;99.90;;;;;;5004637;28;20064;-58
2022/12/25 11:17:24;;;;;;;23.77;9.88;;;8.90;99.90;;;;;;5005467;28;20081;-58
2022/12/25 11:19:55;;;;;;;26.23;10.38;;;8.90;99.90;;;;;;5006009;28;20450;-58
2022/12/25 11:22:21;;;;;;;21.38;10.35;;;8.90;99.90;;;;;;5002733;28;20430;-58
2022/12/25 11:24:46;;;;;;;24.17;9.82;;;8.90;99.90;;;;;;5007591;28;20450;-58
2022/12/25 11:27:27;;;;;;;24.50;10.10;;;8.90;99.90;;;;;;5008046;28;20455;-58
2022/12/25 11:30:02;;;;;;;25.70;9.48;;;8.90;99.90;;;;;;5007919;28;20048;-57
2022/12/25 11:32:29;;;;;;;;;;;8.90;99.90;;;;;;5006533;28;20057;-58
2022/12/25 11:34:56;;;;;;;23.58;9.93;;;8.90;99.90;;;;;;5006607;28;19921;-58
2022/12/25 11:37:39;;;;;;;22.70;9.88;;;8.90;99.90;;;;;;5005403;28;20037;-58
2022/12/25 11:40:12;;;;;;;23.95;9.65;;;8.90;99.90;;;;;;5007442;28;20144;-58
2022/12/25 11:42:46;;;;;;;20.92;10.40;;;8.90;99.90;;;;;;5007027;28;20056;-56
2022/12/25 11:45:15;;;;;;;;;;;9.00;99.90;;;;;;5006875;28;20098;-58
2022/12/25 11:47:59;;;;;;;22.75;9.75;;;9.00;99.90;;;;;;5006852;28;19921;-58
2022/12/25 11:50:45;;;;;;;23.52;9.73;;;9.00;99.90;;;;;;5006132;28;20130;-59
2022/12/25 11:53:36;;;;;;;24.27;9.80;;;9.00;99.90;;;;;;4997418;28;20488;-57
2022/12/25 11:56:07;;;;;;;19.75;9.15;;;9.00;99.90;;;;;;5006972;28;20089;-58
2022/12/25 11:58:42;;;;;;;22.75;8.88;;;9.00;99.90;;;;;;5006934;28;20176;-57
2022/12/25 12:01:18;;;;;;;21.73;9.20;;;9.10;99.90;;;;;;4997148;28;20621;-57
2022/12/25 12:03:43;;;;;;;20.02;9.20;;;9.10;99.90;;;;;;5006122;28;20508;-59
2022/12/25 12:06:24;;;;;;;24.25;9.70;;;9.10;99.90;;;;;;5004801;28;20048;-56
2022/12/25 12:09:00;;;;;;;22.92;9.40;;;9.10;99.90;;;;;;5005905;28;20575;-58
2022/12/25 12:11:35;;;;;;;16.90;9.10;;;9.10;99.90;;;;;;5006441;28;20041;-58
2022/12/25 12:14:38;;;;;;;20.17;9.88;;;9.10;99.90;;;;;;5006411;28;20052;-57
2022/12/25 12:17:04;;;;;;;22.60;9.82;;;9.10;99.90;;;;;;5003824;28;20053;-58
2022/12/25 12:19:30;;;;;;;27.48;10.18;;;9.10;99.90;;;;;;5006696;28;20041;-57
2022/12/25 12:22:01;;;;;;;22.95;10.77;;;9.00;99.90;;;;;;5004139;28;20046;-58
2022/12/25 12:24:37;;;;;;;21.85;10.48;;;9.10;99.90;;;;;;5006419;28;20509;-58
2022/12/25 12:27:21;;;;;;;25.73;10.07;;;9.10;99.90;;;;;;5006376;28;20042;-58
2022/12/25 12:29:49;;;;;;;21.10;9.82;;;9.10;99.90;;;;;;5005990;28;20210;-58
2022/12/25 12:32:32;;;;;;;24.02;10.40;;;9.10;99.90;;;;;;5005951;28;20042;-58
2022/12/25 12:35:04;;;;;;;18.38;9.75;;;9.10;99.90;;;;;;5005806;28;20537;-57
2022/12/25 12:37:33;;;;;;;21.85;10.30;;;9.10;99.90;;;;;;5003532;28;20559;-58
2022/12/25 12:40:00;;;;;;;23.95;10.68;;;9.10;99.90;;;;;;5006438;28;20472;-58
2022/12/25 12:42:29;;;;;;;20.40;11.05;;;9.10;99.90;;;;;;5006430;28;20046;-58
2022/12/25 12:45:04;;;;;;;24.05;10.98;;;9.10;99.90;;;;;;5005848;28;20034;-57
2022/12/25 12:47:42;;;;;;;22.52;11.48;;;9.10;99.90;;;;;;4986430;28;20043;-58
2022/12/25 12:50:35;;;;;;;24.13;11.15;;;9.10;99.90;;;;;;4986207;28;20042;-58
2022/12/25 12:53:22;;;;;;;22.15;11.23;;;9.10;99.90;;;;;;4994863;28;20606;-57
2022/12/25 12:55:48;;;;;;;23.33;12.02;;;9.10;99.90;;;;;;5002037;28;20190;-56
2022/12/25 12:58:32;;;;;;;24.33;13.43;;;9.10;99.90;;;;;;5006021;28;20736;-58
2022/12/25 13:01:40;;;;;;;24.75;12.23;;;9.10;99.90;;;;;;5005712;28;20041;-57
2022/12/25 13:04:21;;;;;;;23.95;13.07;;;9.20;99.90;;;;;;4995143;28;20054;-57
2022/12/25 13:06:55;;;;;;;23.23;14.13;;;9.20;99.90;;;;;;5003585;28;20401;-58
2022/12/25 13:09:24;;;;;;;27.33;15.35;;;9.20;99.90;;;;;;4986421;28;20042;-59
2022/12/25 13:11:50;;;;;;;31.70;17.00;;;9.20;99.90;;;;;;4986292;28;20084;-58
2022/12/25 13:14:19;;;;;;;28.42;17.23;;;9.20;99.90;;;;;;4984765;28;20112;-58
2022/12/25 13:16:47;;;;;;;32.72;17.88;;;9.30;99.90;;;;;;4999492;28;20037;-58
2022/12/25 13:19:14;;;;;;;34.88;18.25;;;9.30;99.90;;;;;;5005459;28;20045;-58
2022/12/25 13:21:39;;;;;;;31.63;18.00;;;9.20;99.90;;;;;;5003678;28;20061;-58
2022/12/25 13:24:19;;;;;;;36.83;19.85;;;9.20;99.90;;;;;;5002742;28;20046;-57
2022/12/25 13:26:44;;;;;;;34.63;19.20;;;9.20;99.90;;;;;;5004850;28;20096;-58
2022/12/25 13:29:30;;;;;;;33.33;19.85;;;9.20;99.90;;;;;;5004983;28;20037;-58
2022/12/25 13:32:00;;;;;;;40.10;20.70;;;9.20;99.90;;;;;;5000880;28;20124;-59
2022/12/25 13:34:32;;;;;;;40.55;19.02;;;9.20;99.90;;;;;;5004899;28;20038;-58
2022/12/25 13:37:04;;;;;;;36.17;21.60;;;9.20;99.90;;;;;;5002958;28;20038;-58
2022/12/25 13:39:32;;;;;;;39.20;20.42;;;9.20;99.90;;;;;;5005107;28;20040;-58
2022/12/25 13:42:04;;;;;;;53.50;26.70;;;9.20;99.90;;;;;;5003213;28;20054;-58
2022/12/25 13:44:52;;;;;;;50.97;26.63;;;9.20;99.90;;;;;;5004929;28;20042;-57
2022/12/25 13:47:31;;;;;;;42.03;20.90;;;9.20;99.90;;;;;;5004406;28;20050;-58
2022/12/25 13:49:59;;;;;;;30.73;14.75;;;9.10;99.90;;;;;;5004827;28;20378;-59
2022/12/25 13:52:33;;;;;;;31.38;16.83;;;9.10;99.90;;;;;;5002308;28;20131;-58
2022/12/25 13:55:17;;;;;;;37.53;18.95;;;9.10;99.90;;;;;;5005208;28;20046;-58
2022/12/25 13:57:49;;;;;;;45.63;21.52;;;9.00;99.90;;;;;;5004981;28;20533;-58
2022/12/25 14:00:44;;;;;;;35.85;15.85;;;9.00;99.90;;;;;;5004209;28;20048;-58
2022/12/25 14:03:17;;;;;;;;;;;9.00;99.90;;;;;;5005084;28;20038;-58
2022/12/25 14:05:43;;;;;;;26.25;13.80;;;8.90;99.90;;;;;;5003277;28;20020;-58
2022/12/25 14:08:26;;;;;;;30.90;13.73;;;8.90;99.90;;;;;;5002985;28;20038;-58
2022/12/25 14:10:53;;;;;;;35.90;15.35;;;8.90;99.90;;;;;;5005045;28;20546;-59
2022/12/25 14:13:22;;;;;;;32.50;15.90;;;8.80;99.90;;;;;;5003759;28;20132;-59
2022/12/25 14:15:49;;;;;;;32.42;16.30;;;8.80;99.90;;;;;;5004839;28;20046;-59
2022/12/25 14:18:16;;;;;;;35.00;17.67;;;8.80;99.90;;;;;;4987273;28;20038;-59
2022/12/25 14:21:05;;;;;;;38.60;16.83;;;8.70;99.90;;;;;;5001649;28;20042;-59
2022/12/25 14:23:42;;;;;;;39.15;18.50;;;8.70;99.90;;;;;;5003484;28;20121;-61
2022/12/25 14:26:28;;;;;;;41.05;18.90;;;8.70;99.90;;;;;;5004955;28;20045;-57
2022/12/25 14:29:08;;;;;;;42.80;19.25;;;8.60;99.90;;;;;;5004412;28;20088;-59